Frank T. Stegbauer — WDE5944 — position and weather

sailwx.info

Track history (hours):
 
Tides and Currents Weather Stations Pressure Air Temp Water Temp Dewpoint Dewpoint Depression Visibility Wind Speed Wind Dir Waves Ship Positions

Frank T. Stegbauer

Owner: SOUTHERN TOWING COMPANY LLC., Memphis, TN. More information available from US FCC via Universal Licensing System and Coast Guard Vessel Documentation Center.

Last reported at 2016-Mar-21 04:28 UTC. Time now 2016-May-06 14:54 UTC.
Position N 32°36' W 091°08'.
Warning: this ship's position is 46 days out of date.

Length 35 m; draft 8.6 m.

Type: Tug. MMSI: 367373640.

Date/timePositionNaut miles runAvg speedWind from/ knotsBaromVisibWave heightAir tempDewpointWater temp
2016-Mar-21 04:28N 32°36' W 091°08'4 4.2
2016-Mar-21 03:28N 32°32' W 091°06'4 4.3
2016-Mar-21 02:33N 32°28' W 091°06'1 1.1
2016-Mar-21 01:33N 32°27' W 091°05'1 0.7
2016-Mar-21 00:33N 32°27' W 091°05'3 3.5
2016-Mar-20 23:33N 32°26' W 091°01'3 3.4
2016-Mar-20 22:33N 32°22' W 091°00'4 4.2
2016-Mar-20 21:33N 32°21' W 090°56'3 3.1
2016-Mar-20 20:33N 32°18' W 090°55'3 2.8
2016-Mar-20 19:34N 32°16' W 090°58'5 4.9
2016-Mar-20 18:33N 32°11' W 090°60'5 4.2
2016-Mar-20 17:28N 32°07' W 091°02'  
2016-Mar-14 13:08N 31°59' W 091°06'6 8.7
2016-Mar-14 12:29N 32°05' W 091°04'4 4.1
2016-Mar-14 11:33N 32°07' W 091°01'10 9.7
2016-Mar-14 10:34N 32°16' W 090°57'6 5.6
2016-Mar-14 09:34N 32°21' W 090°60'9 8.7
2016-Mar-14 08:33N 32°28' W 091°06'  
Track history (hours):
 
Tides and Currents Weather Stations Pressure Air Temp Water Temp Dewpoint Dewpoint Depression Visibility Wind Speed Wind Dir Waves Ship Positions

Frank T. Stegbauer

Owner: SOUTHERN TOWING COMPANY LLC., Memphis, TN. More information available from US FCC via Universal Licensing System and Coast Guard Vessel Documentation Center.

Last reported at 2016-Mar-21 04:28 UTC. Time now 2016-May-06 14:54 UTC.
Position N 32°36' W 091°08'.
Warning: this ship's position is 46 days out of date.

Length 35 m; draft 8.6 m.

Type: Tug. MMSI: 367373640.

Date/timePositionNaut miles runAvg speedWind from/ knotsBaromVisibWave heightAir tempDewpointWater temp
2016-Mar-21 04:28N 32°36' W 091°08'4 4.2
2016-Mar-21 03:28N 32°32' W 091°06'4 4.3
2016-Mar-21 02:33N 32°28' W 091°06'1 1.1
2016-Mar-21 01:33N 32°27' W 091°05'1 0.7
2016-Mar-21 00:33N 32°27' W 091°05'3 3.5
2016-Mar-20 23:33N 32°26' W 091°01'3 3.4
2016-Mar-20 22:33N 32°22' W 091°00'4 4.2
2016-Mar-20 21:33N 32°21' W 090°56'3 3.1
2016-Mar-20 20:33N 32°18' W 090°55'3 2.8
2016-Mar-20 19:34N 32°16' W 090°58'5 4.9
2016-Mar-20 18:33N 32°11' W 090°60'5 4.2
2016-Mar-20 17:28N 32°07' W 091°02'  
2016-Mar-14 13:08N 31°59' W 091°06'6 8.7
2016-Mar-14 12:29N 32°05' W 091°04'4 4.1
2016-Mar-14 11:33N 32°07' W 091°01'10 9.7
2016-Mar-14 10:34N 32°16' W 090°57'6 5.6
2016-Mar-14 09:34N 32°21' W 090°60'9 8.7
2016-Mar-14 08:33N 32°28' W 091°06'  

Dump ship's entire track history